createdAt,value
2022-10-05T03:29:09.215Z,11.67
2022-10-05T03:30:09.148Z,11.70
2022-10-05T03:31:09.265Z,11.65
2022-10-05T03:32:09.126Z,11.62
2022-10-05T03:33:09.120Z,11.62
2022-10-05T03:34:09.137Z,11.60
2022-10-05T03:35:09.097Z,11.55
2022-10-05T03:36:09.087Z,11.60
2022-10-05T03:37:09.071Z,11.57
2022-10-05T03:38:09.108Z,11.62
2022-10-05T03:39:09.142Z,11.57
2022-10-05T03:40:14.326Z,11.62
2022-10-05T03:41:09.058Z,11.65
2022-10-05T03:42:09.017Z,11.55
2022-10-05T03:43:09.000Z,11.60
2022-10-05T03:44:09.000Z,11.60
2022-10-05T03:45:09.010Z,11.55
2022-10-05T03:46:09.039Z,11.52
2022-10-05T03:47:09.266Z,11.55
2022-10-05T03:48:09.242Z,11.57
2022-10-05T03:49:09.433Z,11.57
2022-10-05T03:50:09.065Z,11.65
2022-10-05T03:51:14.208Z,11.64
2022-10-05T03:52:09.029Z,11.64
2022-10-05T03:53:08.903Z,11.57
2022-10-05T03:54:08.914Z,11.64
2022-10-05T03:55:08.882Z,11.55
2022-10-05T03:56:08.861Z,11.62
2022-10-05T03:57:08.913Z,11.60
2022-10-05T03:58:08.829Z,11.58
2022-10-05T03:59:08.838Z,11.61
2022-10-05T04:00:08.810Z,11.58
2022-10-05T04:01:08.884Z,11.55
2022-10-05T04:02:13.839Z,11.55
2022-10-05T04:03:08.814Z,11.61
2022-10-05T04:04:08.778Z,11.57
2022-10-05T04:05:08.752Z,11.60
2022-10-05T04:06:08.804Z,11.65
2022-10-05T04:07:08.736Z,11.60
2022-10-05T04:08:08.744Z,11.69
2022-10-05T04:09:08.723Z,11.60
2022-10-05T04:10:08.693Z,11.65
2022-10-05T04:11:08.688Z,11.61
2022-10-05T04:12:08.670Z,11.65
2022-10-05T04:13:13.685Z,11.58
2022-10-05T04:14:08.671Z,11.65
2022-10-05T04:15:08.639Z,11.67
2022-10-05T04:16:08.739Z,11.67
2022-10-05T04:17:08.634Z,11.64
2022-10-05T04:18:08.604Z,11.60
2022-10-05T04:19:08.625Z,11.61
2022-10-05T04:20:08.593Z,11.58
2022-10-05T04:21:08.571Z,11.55
2022-10-05T04:22:08.559Z,11.58
2022-10-05T04:23:08.560Z,11.58
2022-10-05T04:24:13.561Z,11.60
2022-10-05T04:25:08.580Z,11.57
2022-10-05T04:26:08.510Z,11.57
2022-10-05T04:27:08.501Z,11.61
2022-10-05T04:28:08.533Z,11.60
2022-10-05T04:29:08.515Z,11.57
2022-10-05T04:30:08.478Z,11.57
2022-10-05T04:31:08.490Z,11.58
2022-10-05T04:32:08.442Z,11.60
2022-10-05T04:33:08.452Z,11.58
2022-10-05T04:34:08.424Z,11.61
2022-10-05T04:35:13.453Z,11.64
2022-10-05T04:36:08.435Z,11.58
2022-10-05T04:37:08.393Z,11.61
2022-10-05T04:38:08.383Z,11.58
2022-10-05T04:39:08.551Z,11.52
2022-10-05T04:40:08.370Z,11.58
2022-10-05T04:41:08.474Z,11.58
2022-10-05T04:42:08.348Z,11.55
2022-10-05T04:43:08.319Z,11.55
2022-10-05T04:44:08.334Z,11.54
2022-10-05T04:45:08.314Z,11.51
2022-10-05T04:46:13.414Z,11.52
2022-10-05T04:47:08.347Z,11.52
2022-10-05T04:48:08.377Z,11.60
2022-10-05T04:49:08.305Z,11.58
2022-10-05T04:50:08.265Z,11.60
2022-10-05T04:51:08.229Z,11.52
2022-10-05T04:52:08.222Z,11.54
2022-10-05T04:53:08.211Z,11.57
2022-10-05T04:54:08.224Z,11.54
2022-10-05T04:55:08.203Z,11.65
2022-10-05T04:56:08.172Z,11.54
2022-10-05T04:57:13.194Z,11.46
2022-10-05T04:58:08.148Z,11.49
2022-10-05T04:59:08.137Z,11.55
2022-10-05T05:00:08.126Z,11.43
2022-10-05T05:01:08.180Z,11.40
2022-10-05T05:02:08.115Z,11.49
2022-10-05T05:03:08.105Z,11.49
2022-10-05T05:04:08.151Z,11.43
2022-10-05T05:05:08.095Z,11.39
2022-10-05T05:06:19.026Z,11.44
2022-10-05T05:07:09.052Z,11.37
2022-10-05T05:08:13.058Z,11.39
2022-10-05T05:09:08.046Z,11.39
2022-10-05T05:10:08.014Z,11.40
2022-10-05T05:11:10.382Z,11.35
2022-10-05T05:12:09.019Z,11.33
2022-10-05T05:13:07.996Z,11.33
2022-10-05T05:14:07.988Z,11.32
2022-10-05T05:15:08.035Z,11.29
2022-10-05T05:16:08.015Z,11.32
2022-10-05T05:17:12.305Z,11.35
2022-10-05T05:18:08.929Z,11.35
2022-10-05T05:19:12.950Z,11.25
2022-10-05T05:20:07.966Z,11.19
2022-10-05T05:21:07.955Z,11.32
2022-10-05T05:22:07.990Z,11.29
2022-10-05T05:23:07.947Z,11.22
2022-10-05T05:24:07.868Z,11.33
2022-10-05T05:25:07.849Z,11.19
2022-10-05T05:26:07.855Z,11.27
2022-10-05T05:27:07.833Z,11.25
2022-10-05T05:28:08.052Z,11.29
2022-10-05T05:29:07.818Z,11.28
2022-10-05T05:30:12.809Z,11.24
2022-10-05T05:31:07.827Z,11.24
2022-10-05T05:32:07.765Z,11.29
2022-10-05T05:33:07.771Z,11.19
2022-10-05T05:34:07.777Z,11.29
2022-10-05T05:35:07.747Z,11.27
2022-10-05T05:36:07.728Z,11.29
2022-10-05T05:37:07.814Z,11.25
2022-10-05T05:38:07.721Z,11.32
2022-10-05T05:39:07.690Z,11.27
2022-10-05T05:40:07.681Z,11.29
2022-10-05T05:41:12.776Z,11.32
2022-10-05T05:42:07.649Z,11.32
2022-10-05T05:43:07.639Z,11.35
2022-10-05T05:44:07.640Z,11.40
2022-10-05T05:45:07.625Z,11.36
2022-10-05T05:46:07.605Z,11.43
2022-10-05T05:47:07.935Z,11.39
2022-10-05T05:48:07.592Z,11.46
2022-10-05T05:49:07.576Z,11.42
2022-10-05T05:50:07.894Z,11.43
2022-10-05T05:51:07.557Z,11.43
2022-10-05T05:52:12.698Z,11.43
2022-10-05T05:53:07.525Z,11.36
2022-10-05T05:54:07.517Z,11.37
2022-10-05T05:55:07.505Z,11.37
2022-10-05T05:56:07.506Z,11.32
2022-10-05T05:57:07.487Z,11.28
2022-10-05T05:58:07.471Z,11.27
2022-10-05T05:59:07.458Z,11.22
2022-10-05T06:00:07.445Z,11.28
2022-10-05T06:01:13.186Z,11.27
2022-10-05T06:02:08.496Z,11.33
2022-10-05T06:03:12.545Z,11.18
2022-10-05T06:04:07.399Z,11.19
2022-10-05T06:05:07.390Z,11.19
2022-10-05T06:06:07.394Z,11.19
2022-10-05T06:07:07.371Z,11.25
2022-10-05T06:08:07.399Z,11.15
2022-10-05T06:09:07.357Z,11.33
2022-10-05T06:10:07.332Z,11.25
2022-10-05T06:11:07.388Z,11.32
2022-10-05T06:12:07.311Z,11.24
2022-10-05T06:13:07.335Z,11.29
2022-10-05T06:14:12.317Z,11.28
2022-10-05T06:15:07.277Z,11.33
2022-10-05T06:16:07.378Z,11.25
2022-10-05T06:17:07.276Z,11.25
2022-10-05T06:18:07.245Z,11.22
2022-10-05T06:19:07.234Z,11.32
2022-10-05T06:20:07.218Z,11.29
2022-10-05T06:21:07.220Z,11.29
2022-10-05T06:22:07.202Z,11.19
2022-10-05T06:23:07.193Z,11.21
2022-10-05T06:24:07.192Z,11.10
2022-10-05T06:25:12.211Z,11.10
2022-10-05T06:26:10.695Z,11.03
2022-10-05T06:27:07.159Z,11.00
2022-10-05T06:28:07.218Z,11.04
2022-10-05T06:29:07.120Z,11.03
2022-10-05T06:30:07.108Z,10.97
2022-10-05T06:31:07.157Z,11.00
2022-10-05T06:32:07.132Z,11.00
2022-10-05T06:33:07.072Z,11.00
2022-10-05T06:34:07.072Z,10.96
2022-10-05T06:35:07.067Z,10.96
2022-10-05T06:36:12.067Z,11.02
2022-10-05T06:37:07.045Z,10.99
2022-10-05T06:38:07.014Z,10.99
2022-10-05T06:39:07.007Z,10.89
2022-10-05T06:40:07.013Z,10.97
2022-10-05T06:41:06.995Z,10.99
2022-10-05T06:42:06.980Z,10.92
2022-10-05T06:43:06.959Z,10.89
2022-10-05T06:44:06.963Z,10.96
2022-10-05T06:45:06.938Z,10.96
2022-10-05T06:46:06.995Z,11.03
2022-10-05T06:47:11.957Z,11.03
2022-10-05T06:48:06.908Z,10.96
2022-10-05T06:49:06.898Z,10.88
2022-10-05T06:50:06.917Z,10.85
2022-10-05T06:51:06.873Z,10.89
2022-10-05T06:52:06.878Z,10.89
2022-10-05T06:53:06.847Z,10.96
2022-10-05T06:54:06.836Z,10.94
2022-10-05T06:55:09.565Z,10.97
2022-10-05T06:56:07.850Z,11.06
2022-10-05T06:57:06.814Z,11.07
2022-10-05T06:58:11.812Z,10.97
2022-10-05T06:59:06.780Z,10.94
2022-10-05T07:00:06.779Z,11.03
2022-10-05T07:01:06.850Z,11.09
2022-10-05T07:02:06.834Z,11.14
2022-10-05T07:03:06.732Z,11.06
2022-10-05T07:04:06.721Z,11.14
2022-10-05T07:05:06.710Z,11.15
2022-10-05T07:06:06.714Z,11.18
2022-10-05T07:07:06.688Z,11.17
2022-10-05T07:08:06.689Z,11.22
2022-10-05T07:09:11.690Z,11.10
2022-10-05T07:10:06.666Z,11.19
2022-10-05T07:11:06.685Z,11.29
2022-10-05T07:12:07.312Z,11.39
2022-10-05T07:13:06.648Z,11.27
2022-10-05T07:14:06.773Z,11.27
2022-10-05T07:15:06.597Z,11.33
2022-10-05T07:16:06.648Z,11.28
2022-10-05T07:17:06.579Z,11.29
2022-10-05T07:18:06.585Z,11.36
2022-10-05T07:19:06.556Z,11.43
2022-10-05T07:20:11.582Z,11.33
2022-10-05T07:21:06.531Z,11.37
2022-10-05T07:23:06.518Z,11.54
2022-10-05T07:24:06.517Z,11.47
2022-10-05T07:25:06.493Z,11.55
2022-10-05T07:26:06.477Z,11.58
2022-10-05T07:27:06.461Z,11.61
2022-10-05T07:28:06.567Z,11.61
2022-10-05T07:29:06.455Z,11.62
2022-10-05T07:30:06.427Z,11.62
2022-10-05T07:31:11.546Z,11.70
2022-10-05T07:32:06.408Z,11.67
2022-10-05T07:33:06.410Z,11.76
2022-10-05T07:34:06.381Z,11.73
2022-10-05T07:35:06.368Z,11.83
2022-10-05T07:36:06.363Z,11.80
2022-10-05T07:37:06.350Z,11.86
2022-10-05T07:38:06.334Z,11.88
2022-10-05T07:39:06.334Z,11.94
2022-10-05T07:40:06.312Z,11.88
2022-10-05T07:41:06.325Z,12.01
2022-10-05T07:42:11.312Z,12.09
2022-10-05T07:43:06.282Z,12.07
2022-10-05T07:44:11.658Z,12.12
2022-10-05T07:45:07.255Z,12.12
2022-10-05T07:46:06.309Z,12.24
2022-10-05T07:47:06.233Z,12.39
2022-10-05T07:48:06.226Z,12.46
2022-10-05T07:49:06.221Z,12.49
2022-10-05T07:50:06.209Z,12.56
2022-10-05T07:51:06.191Z,12.54
2022-10-05T07:52:06.188Z,12.78
2022-10-05T07:53:11.188Z,12.90
2022-10-05T07:54:06.168Z,13.15
2022-10-05T07:55:06.143Z,13.57
2022-10-05T07:56:06.133Z,14.00
2022-10-05T07:57:06.171Z,14.18
2022-10-05T07:58:06.121Z,14.29
2022-10-05T07:59:06.255Z,14.17
2022-10-05T08:00:06.134Z,14.17
2022-10-05T08:01:06.076Z,13.95
2022-10-05T08:02:06.308Z,13.88
2022-10-05T08:03:06.122Z,13.85
2022-10-05T08:04:11.254Z,13.87
2022-10-05T08:05:06.108Z,13.81
2022-10-05T08:06:06.041Z,13.84
2022-10-05T08:07:06.005Z,14.00
2022-10-05T08:08:06.016Z,14.17
2022-10-05T08:09:06.007Z,14.29
2022-10-05T08:10:05.973Z,14.51
2022-10-05T08:11:06.177Z,14.55
2022-10-05T08:12:05.964Z,14.54
2022-10-05T08:13:05.933Z,14.64
2022-10-05T08:14:05.930Z,14.86
2022-10-05T08:15:10.977Z,14.99
2022-10-05T08:16:06.096Z,15.16
2022-10-05T08:17:05.887Z,15.32
2022-10-05T08:18:05.882Z,15.53
2022-10-05T08:19:05.865Z,15.60
2022-10-05T08:20:05.867Z,15.60
2022-10-05T08:21:05.904Z,15.51
2022-10-05T08:22:05.834Z,15.50
2022-10-05T08:23:05.820Z,15.29
2022-10-05T08:24:05.814Z,15.27
2022-10-05T08:25:05.823Z,15.32
2022-10-05T08:26:10.810Z,15.67
2022-10-05T08:27:05.782Z,16.07
2022-10-05T08:28:05.821Z,16.00
2022-10-05T08:29:08.204Z,15.89
2022-10-05T08:30:05.760Z,16.07
2022-10-05T08:31:05.850Z,16.28
2022-10-05T08:32:05.831Z,16.28
2022-10-05T08:33:05.709Z,16.45
2022-10-05T08:34:05.943Z,16.50
2022-10-05T08:35:05.814Z,16.68
2022-10-05T08:36:05.756Z,16.66
2022-10-05T08:37:10.687Z,16.53
2022-10-05T08:38:05.650Z,16.45
2022-10-05T08:39:05.646Z,16.20
2022-10-05T08:40:05.639Z,16.12
2022-10-05T08:41:05.618Z,16.25
2022-10-05T08:42:05.606Z,16.33
2022-10-05T08:43:05.610Z,16.35
2022-10-05T08:44:05.594Z,16.39
2022-10-05T08:45:05.582Z,16.46
2022-10-05T08:46:05.620Z,16.35
2022-10-05T08:47:05.584Z,16.21
2022-10-05T08:48:10.562Z,16.09
2022-10-05T08:49:05.531Z,16.02
2022-10-05T08:50:05.531Z,16.02
2022-10-05T08:51:05.505Z,16.17
2022-10-05T08:52:05.493Z,16.23
2022-10-05T08:53:05.480Z,16.27
2022-10-05T08:54:05.474Z,16.38
2022-10-05T08:55:05.527Z,16.43
2022-10-05T08:56:05.460Z,16.33
2022-10-05T08:57:05.449Z,16.25
2022-10-05T08:58:05.429Z,16.30
2022-10-05T08:59:10.483Z,16.27
2022-10-05T09:00:05.411Z,16.31
2022-10-05T09:01:05.453Z,16.24
2022-10-05T09:02:05.499Z,16.41
2022-10-05T09:03:05.397Z,16.39
2022-10-05T09:04:05.357Z,16.34
2022-10-05T09:05:05.353Z,16.46
2022-10-05T09:06:05.333Z,16.46
2022-10-05T09:07:05.321Z,16.33
2022-10-05T09:08:05.311Z,16.34
2022-10-05T09:09:05.298Z,16.21
2022-10-05T09:10:10.402Z,16.24
2022-10-05T09:11:05.276Z,16.25
2022-10-05T09:12:05.266Z,16.33
2022-10-05T09:13:05.257Z,16.46
2022-10-05T09:14:05.264Z,16.49
2022-10-05T09:15:25.000Z,16.52
2022-10-05T09:16:06.339Z,16.53
2022-10-05T09:17:05.214Z,16.71
2022-10-05T09:18:05.200Z,16.78
2022-10-05T09:19:05.224Z,16.81
2022-10-05T09:20:05.204Z,16.75
2022-10-05T09:21:10.193Z,16.73
2022-10-05T09:22:05.153Z,16.76
2022-10-05T09:23:05.206Z,16.67
2022-10-05T09:24:05.149Z,16.67
2022-10-05T09:25:05.171Z,16.68
2022-10-05T09:26:05.181Z,16.70
2022-10-05T09:27:05.107Z,16.79
2022-10-05T09:28:05.155Z,16.73
2022-10-05T09:29:05.093Z,16.82
2022-10-05T09:30:05.080Z,16.98
2022-10-05T09:31:05.158Z,17.07
2022-10-05T09:32:15.584Z,17.16
2022-10-05T09:33:06.181Z,17.11
2022-10-05T09:34:05.020Z,17.14
2022-10-05T09:35:05.030Z,16.97
2022-10-05T09:36:05.014Z,16.93
2022-10-05T09:37:04.991Z,16.91
2022-10-05T09:38:04.993Z,16.82
2022-10-05T09:39:05.003Z,16.79
2022-10-05T09:40:04.955Z,16.81
2022-10-05T09:41:04.965Z,16.81
2022-10-05T09:42:04.928Z,16.86
2022-10-05T09:43:09.943Z,16.81
2022-10-05T09:44:04.930Z,16.83
2022-10-05T09:45:04.895Z,16.98
2022-10-05T09:46:04.984Z,16.97
2022-10-05T09:47:04.872Z,16.85
2022-10-05T09:48:04.859Z,16.81
2022-10-05T09:49:04.849Z,16.66
2022-10-05T09:50:04.839Z,16.68
2022-10-05T09:51:04.879Z,16.78
2022-10-05T09:52:04.833Z,16.85
2022-10-05T09:53:04.815Z,16.83
2022-10-05T09:54:09.832Z,16.94
2022-10-05T09:55:04.789Z,17.06
2022-10-05T09:56:04.815Z,17.07
2022-10-05T09:57:04.766Z,17.21
2022-10-05T09:58:04.748Z,17.19
2022-10-05T09:59:04.740Z,17.22
2022-10-05T10:00:04.802Z,17.19
2022-10-05T10:01:09.982Z,17.22
2022-10-05T10:02:05.778Z,17.37
2022-10-05T10:03:04.765Z,17.38
2022-10-05T10:04:04.708Z,17.46
2022-10-05T10:05:09.688Z,17.46
2022-10-05T10:06:04.673Z,17.66
2022-10-05T10:07:04.663Z,17.93
2022-10-05T10:08:04.639Z,18.23
2022-10-05T10:09:04.628Z,18.17
2022-10-05T10:10:04.612Z,18.32
2022-10-05T10:11:04.613Z,18.15
2022-10-05T10:12:04.591Z,18.14
2022-10-05T10:13:04.600Z,17.87
2022-10-05T10:14:04.584Z,17.79
2022-10-05T10:15:04.555Z,17.97
2022-10-05T10:16:09.664Z,17.96
2022-10-05T10:17:04.547Z,17.95
2022-10-05T10:18:04.519Z,17.92
2022-10-05T10:19:04.538Z,17.92
2022-10-05T10:20:04.523Z,18.05
2022-10-05T10:21:04.485Z,18.10
2022-10-05T10:22:04.490Z,18.11
2022-10-05T10:23:04.562Z,18.10
2022-10-05T10:24:04.454Z,18.15
2022-10-05T10:25:04.445Z,18.26
2022-10-05T10:26:04.432Z,18.26
2022-10-05T10:27:09.450Z,18.25
2022-10-05T10:28:04.533Z,18.36
2022-10-05T10:29:04.404Z,18.33
2022-10-05T10:30:04.390Z,18.37
2022-10-05T10:31:04.442Z,18.37
2022-10-05T10:32:04.370Z,18.39
2022-10-05T10:33:04.361Z,18.44
2022-10-05T10:34:04.346Z,18.60
2022-10-05T10:35:04.358Z,18.42
2022-10-05T10:36:06.861Z,18.52
2022-10-05T10:37:04.322Z,18.52
2022-10-05T10:38:09.480Z,18.52
2022-10-05T10:39:04.282Z,18.65
2022-10-05T10:40:04.272Z,18.63
2022-10-05T10:41:04.267Z,18.78
2022-10-05T10:42:04.259Z,18.75
2022-10-05T10:43:04.236Z,18.73
2022-10-05T10:44:04.233Z,18.88
2022-10-05T10:45:04.217Z,18.90
2022-10-05T10:46:04.271Z,18.94
2022-10-05T10:47:04.215Z,19.16
2022-10-05T10:48:04.216Z,19.18
2022-10-05T10:49:09.191Z,19.16
2022-10-05T10:50:04.168Z,19.18
2022-10-05T10:51:04.166Z,19.11
2022-10-05T10:52:04.149Z,19.16
2022-10-05T10:53:04.149Z,19.02
2022-10-05T10:54:04.143Z,19.11
2022-10-05T10:55:04.100Z,19.07
2022-10-05T10:56:04.091Z,19.08
2022-10-05T10:57:04.089Z,18.95
2022-10-05T10:58:04.069Z,19.04
2022-10-05T10:59:04.055Z,19.02
2022-10-05T11:00:09.089Z,19.07
2022-10-05T11:01:04.039Z,19.11
2022-10-05T11:02:04.198Z,19.10
2022-10-05T11:03:04.122Z,19.23
2022-10-05T11:04:03.996Z,19.25
2022-10-05T11:05:03.989Z,19.19
2022-10-05T11:06:03.980Z,19.21
2022-10-05T11:07:03.987Z,19.28
2022-10-05T11:08:03.987Z,19.22
2022-10-05T11:09:03.966Z,19.25
2022-10-05T11:10:03.969Z,19.31
2022-10-05T11:11:08.963Z,19.33
2022-10-05T11:12:03.914Z,19.33
2022-10-05T11:13:03.926Z,19.41
2022-10-05T11:14:03.887Z,19.46
2022-10-05T11:15:03.878Z,19.46
2022-10-05T11:16:04.072Z,19.46
2022-10-05T11:17:03.854Z,19.51
2022-10-05T11:18:03.861Z,19.58
2022-10-05T11:19:03.837Z,19.73
2022-10-05T11:20:05.040Z,19.80
2022-10-05T11:21:03.809Z,19.91
2022-10-05T11:22:08.834Z,19.84
2022-10-05T11:23:03.795Z,19.98
2022-10-05T11:24:03.771Z,20.36
2022-10-05T11:25:03.769Z,20.48
2022-10-05T11:26:03.788Z,20.54
2022-10-05T11:27:03.756Z,20.54
2022-10-05T11:28:03.840Z,20.52
2022-10-05T11:29:03.728Z,20.41
2022-10-05T11:30:03.715Z,20.28
2022-10-05T11:31:03.793Z,20.33
2022-10-05T11:32:03.683Z,20.43
2022-10-05T11:33:08.717Z,20.35
2022-10-05T11:34:03.667Z,20.29
2022-10-05T11:35:03.649Z,20.26
2022-10-05T11:36:03.647Z,20.28
2022-10-05T11:37:03.626Z,20.17
2022-10-05T11:38:03.641Z,20.16
2022-10-05T11:39:03.604Z,20.05
2022-10-05T11:40:03.596Z,20.14
2022-10-05T11:41:03.607Z,20.18
2022-10-05T11:42:03.591Z,20.21
2022-10-05T11:43:03.572Z,20.23
2022-10-05T11:44:08.574Z,20.08
2022-10-05T11:45:03.542Z,20.10
2022-10-05T11:46:03.545Z,20.13
2022-10-05T11:47:03.523Z,20.11
2022-10-05T11:48:03.519Z,19.99
2022-10-05T11:49:03.495Z,20.08
2022-10-05T11:50:03.482Z,19.96
2022-10-05T11:51:03.485Z,20.06
2022-10-05T11:52:03.467Z,20.11
2022-10-05T11:53:03.449Z,20.16
2022-10-05T11:54:03.453Z,20.14
2022-10-05T11:55:11.426Z,20.16
2022-10-05T11:56:03.414Z,20.21
2022-10-05T11:57:03.408Z,20.23
2022-10-05T11:58:03.419Z,20.10
2022-10-05T11:59:03.406Z,20.10
2022-10-05T12:00:03.373Z,20.18
2022-10-05T12:01:03.382Z,20.20
2022-10-05T12:02:03.364Z,20.21
2022-10-05T12:03:03.476Z,20.24
2022-10-05T12:04:03.419Z,20.54
2022-10-05T12:05:03.324Z,20.80
2022-10-05T12:06:08.327Z,20.92
2022-10-05T12:07:03.295Z,21.06
2022-10-05T12:08:03.281Z,21.06
2022-10-05T12:09:03.281Z,20.95
2022-10-05T12:10:03.265Z,20.92
2022-10-05T12:11:03.253Z,20.88
2022-10-05T12:12:03.241Z,20.94
2022-10-05T12:13:03.226Z,21.07
2022-10-05T12:14:03.248Z,21.07
2022-10-05T12:15:03.214Z,21.01
2022-10-05T12:16:03.255Z,21.04
2022-10-05T12:17:08.210Z,21.24
2022-10-05T12:18:03.171Z,21.38
2022-10-05T12:19:03.188Z,21.59
2022-10-05T12:20:03.230Z,21.74
2022-10-05T12:21:03.166Z,21.86
2022-10-05T12:22:03.123Z,21.94
2022-10-05T12:23:03.117Z,21.62
2022-10-05T12:24:03.133Z,21.44
2022-10-05T12:25:03.093Z,21.34
2022-10-05T12:26:03.075Z,21.31
2022-10-05T12:27:03.065Z,21.27
2022-10-05T12:28:08.132Z,21.21
2022-10-05T12:29:03.078Z,21.06
2022-10-05T12:30:03.158Z,20.95
2022-10-05T12:31:03.104Z,20.98
2022-10-05T12:32:03.018Z,20.97
2022-10-05T12:33:02.999Z,21.04
2022-10-05T12:34:02.988Z,21.21
2022-10-05T12:35:02.988Z,21.14
2022-10-05T12:36:02.961Z,21.24
2022-10-05T12:37:04.454Z,21.21
2022-10-05T12:38:02.961Z,21.12
2022-10-05T12:39:07.958Z,21.12
2022-10-05T12:40:03.097Z,21.12
2022-10-05T12:41:02.905Z,21.16
2022-10-05T12:42:02.901Z,21.24
2022-10-05T12:43:02.891Z,21.22
2022-10-05T12:44:02.874Z,21.28
2022-10-05T12:45:02.877Z,21.38
2022-10-05T12:46:02.890Z,21.52
2022-10-05T12:47:02.837Z,21.58
2022-10-05T12:48:02.828Z,21.65
2022-10-05T12:49:02.841Z,21.69
2022-10-05T12:50:07.846Z,21.71
2022-10-05T12:51:02.817Z,21.59
2022-10-05T12:52:02.823Z,21.42
2022-10-05T12:53:02.779Z,21.34
2022-10-05T12:54:02.760Z,21.29
2022-10-05T12:55:02.768Z,21.25
2022-10-05T12:56:02.743Z,21.31
2022-10-05T12:57:02.721Z,21.22
2022-10-05T12:58:02.718Z,21.28
2022-10-05T12:59:02.718Z,21.29
2022-10-05T13:00:02.702Z,21.29
2022-10-05T13:01:07.752Z,21.35
2022-10-05T13:02:02.710Z,21.27
2022-10-05T13:03:02.660Z,21.34
2022-10-05T13:04:02.639Z,21.27
2022-10-05T13:05:02.647Z,21.28
2022-10-05T13:06:02.987Z,21.27
2022-10-05T13:07:02.615Z,21.28
2022-10-05T13:08:02.611Z,21.28
2022-10-05T13:09:02.584Z,21.31
2022-10-05T13:10:02.578Z,21.34
2022-10-05T13:11:02.583Z,21.27
2022-10-05T13:12:07.589Z,21.38
2022-10-05T13:13:02.559Z,21.37
2022-10-05T13:14:02.544Z,21.34
2022-10-05T13:15:02.514Z,21.43
2022-10-05T13:16:02.655Z,21.44
2022-10-05T13:17:02.514Z,21.43
2022-10-05T13:18:02.482Z,21.43
2022-10-05T13:19:02.470Z,21.50
2022-10-05T13:20:02.471Z,21.49
2022-10-05T13:21:02.457Z,21.52
2022-10-05T13:22:02.435Z,21.53
2022-10-05T13:23:07.451Z,21.58
2022-10-05T13:24:02.420Z,21.65
2022-10-05T13:25:02.403Z,21.68
2022-10-05T13:26:02.408Z,21.69
2022-10-05T13:27:02.400Z,21.69
2022-10-05T13:28:02.463Z,21.61
2022-10-05T13:29:02.372Z,21.79
2022-10-05T13:30:02.347Z,21.84
2022-10-05T13:31:02.442Z,21.88
2022-10-05T13:32:02.320Z,21.94
2022-10-05T13:33:02.389Z,21.92
2022-10-05T13:34:07.322Z,22.05
2022-10-05T13:35:02.299Z,22.05
2022-10-05T13:36:02.272Z,22.05
2022-10-05T13:37:02.278Z,22.15
2022-10-05T13:38:02.254Z,22.14
2022-10-05T13:39:02.240Z,22.18
2022-10-05T13:40:02.234Z,22.25
2022-10-05T13:41:02.216Z,22.27
2022-10-05T13:42:02.214Z,22.24
2022-10-05T13:43:02.215Z,22.30
2022-10-05T13:44:02.180Z,22.24
2022-10-05T13:45:07.197Z,22.28
2022-10-05T13:46:02.244Z,22.28
2022-10-05T13:47:02.179Z,22.28
2022-10-05T13:48:02.156Z,22.30
2022-10-05T13:49:02.180Z,22.28
2022-10-05T13:50:02.123Z,22.25
2022-10-05T13:51:02.104Z,22.37
2022-10-05T13:52:02.098Z,22.39
2022-10-05T13:53:02.106Z,22.39
2022-10-05T13:54:02.078Z,22.40
2022-10-05T13:55:02.064Z,22.45
2022-10-05T13:56:07.072Z,22.43
2022-10-05T13:57:02.046Z,22.51
2022-10-05T13:58:02.025Z,22.51
2022-10-05T13:59:02.010Z,22.49
2022-10-05T14:00:01.998Z,22.49
2022-10-05T14:01:02.002Z,22.45
2022-10-05T14:02:02.071Z,22.47
2022-10-05T14:03:02.073Z,22.49
2022-10-05T14:04:02.669Z,22.49
2022-10-05T14:05:01.968Z,22.49
2022-10-05T14:06:01.936Z,22.49
2022-10-05T14:07:06.959Z,22.47
2022-10-05T14:08:01.903Z,22.49
2022-10-05T14:09:01.913Z,22.43
2022-10-05T14:10:01.884Z,22.52
2022-10-05T14:11:01.883Z,22.49
2022-10-05T14:12:01.902Z,22.43
2022-10-05T14:13:01.873Z,22.46
2022-10-05T14:14:01.862Z,22.52
2022-10-05T14:15:01.889Z,22.47
2022-10-05T14:16:01.929Z,22.58
2022-10-05T14:18:06.823Z,22.49
2022-10-05T14:19:01.803Z,22.49
2022-10-05T14:20:01.871Z,22.46
2022-10-05T14:21:01.781Z,22.49
2022-10-05T14:22:01.852Z,22.51
2022-10-05T14:23:01.740Z,22.55
2022-10-05T14:24:01.728Z,22.55
2022-10-05T14:25:01.720Z,22.58
2022-10-05T14:26:04.448Z,22.57
2022-10-05T14:27:01.712Z,22.57
2022-10-05T14:28:01.770Z,22.57
2022-10-05T14:29:06.691Z,22.55
2022-10-05T14:30:01.695Z,22.62
2022-10-05T14:31:01.657Z,22.60
2022-10-05T14:32:01.781Z,22.58
2022-10-05T14:33:01.687Z,22.60
2022-10-05T14:34:01.613Z,22.61
2022-10-05T14:35:01.612Z,22.67
2022-10-05T14:36:01.588Z,22.55
2022-10-05T14:37:01.627Z,22.73
2022-10-05T14:38:01.597Z,22.62
2022-10-05T14:39:01.567Z,22.70
2022-10-05T14:40:06.568Z,22.64
2022-10-05T14:41:01.571Z,22.55
2022-10-05T14:42:01.616Z,22.55
2022-10-05T14:43:01.507Z,22.58
2022-10-05T14:44:02.138Z,22.55
2022-10-05T14:45:01.493Z,22.62
2022-10-05T14:46:01.670Z,22.60
2022-10-05T14:47:01.516Z,22.55
2022-10-05T14:48:01.476Z,22.49
2022-10-05T14:49:01.441Z,22.55
2022-10-05T14:50:01.434Z,22.58
2022-10-05T14:51:06.446Z,22.54
2022-10-05T14:52:01.424Z,22.54
2022-10-05T14:53:01.424Z,22.46
2022-10-05T14:54:01.407Z,22.49
2022-10-05T14:55:01.396Z,22.47
2022-10-05T14:56:01.365Z,22.52
2022-10-05T14:57:01.364Z,22.51
2022-10-05T14:58:01.342Z,22.49
2022-10-05T14:59:01.336Z,22.49
2022-10-05T15:00:01.328Z,22.47
2022-10-05T15:01:01.367Z,22.49
2022-10-05T15:02:06.362Z,22.49
2022-10-05T15:03:01.308Z,22.47
2022-10-05T15:04:01.277Z,22.55
2022-10-05T15:05:01.283Z,22.52
2022-10-05T15:06:01.251Z,22.52
2022-10-05T15:07:04.072Z,22.55
2022-10-05T15:08:01.250Z,22.52
2022-10-05T15:09:01.276Z,22.46
2022-10-05T15:10:01.218Z,22.49
2022-10-05T15:11:01.197Z,22.54
2022-10-05T15:12:01.195Z,22.52
2022-10-05T15:13:11.219Z,22.52
2022-10-05T15:14:02.164Z,22.47
2022-10-05T15:15:01.149Z,22.45
2022-10-05T15:16:01.160Z,22.49
2022-10-05T15:17:01.249Z,22.47
2022-10-05T15:18:01.124Z,22.49
2022-10-05T15:19:01.123Z,22.49
2022-10-05T15:20:01.101Z,22.49
2022-10-05T15:21:01.083Z,22.49
2022-10-05T15:22:01.124Z,22.35
2022-10-05T15:23:01.061Z,22.37
2022-10-05T15:24:06.171Z,22.43
2022-10-05T15:25:01.036Z,22.45
2022-10-05T15:26:01.057Z,22.45
2022-10-05T15:27:01.053Z,22.42
2022-10-05T15:28:01.075Z,22.39
2022-10-05T15:29:00.991Z,22.51
2022-10-05T15:30:00.997Z,22.36
2022-10-05T15:31:01.005Z,22.40
2022-10-05T15:32:00.964Z,22.39
2022-10-05T15:33:00.959Z,22.39
2022-10-05T15:34:00.937Z,22.35
2022-10-05T15:35:05.946Z,22.33
2022-10-05T15:36:00.919Z,22.30
2022-10-05T15:37:00.910Z,22.40
2022-10-05T15:38:00.921Z,22.30
2022-10-05T15:39:00.941Z,22.27
2022-10-05T15:40:00.889Z,22.28
2022-10-05T15:41:00.855Z,22.28
2022-10-05T15:42:00.854Z,22.20
2022-10-05T15:43:00.894Z,22.20
2022-10-05T15:44:00.831Z,22.22
2022-10-05T15:45:00.887Z,22.17
2022-10-05T15:46:05.880Z,22.24
2022-10-05T15:47:00.790Z,22.15
2022-10-05T15:48:00.802Z,22.21
2022-10-05T15:49:00.778Z,22.18
2022-10-05T15:50:00.773Z,22.18
2022-10-05T15:51:00.748Z,22.12
2022-10-05T15:52:00.744Z,22.21
2022-10-05T15:53:00.736Z,22.18
2022-10-05T15:54:06.044Z,22.21
2022-10-05T15:55:01.696Z,22.21
2022-10-05T15:56:00.711Z,22.14
2022-10-05T15:57:05.697Z,22.18
2022-10-05T15:58:00.673Z,22.17
2022-10-05T15:59:00.750Z,22.06
2022-10-05T16:00:00.641Z,22.09
2022-10-05T16:01:00.699Z,22.18
2022-10-05T16:02:00.703Z,22.07
2022-10-05T16:03:00.621Z,22.06
2022-10-05T16:04:00.598Z,22.06
2022-10-05T16:05:04.618Z,22.05
2022-10-05T16:06:00.574Z,22.06
2022-10-05T16:07:00.561Z,22.05
2022-10-05T16:08:05.580Z,22.06
2022-10-05T16:09:00.537Z,21.96
2022-10-05T16:10:00.527Z,21.90
2022-10-05T16:11:00.514Z,21.91
2022-10-05T16:12:00.526Z,21.94
2022-10-05T16:13:00.494Z,21.84
2022-10-05T16:14:00.493Z,21.80
2022-10-05T16:15:00.468Z,21.82
2022-10-05T16:16:00.456Z,21.88
2022-10-05T16:17:00.550Z,21.82
2022-10-05T16:18:00.435Z,21.80
2022-10-05T16:19:05.493Z,21.75
2022-10-05T16:20:00.412Z,21.83
2022-10-05T16:21:00.397Z,21.80
2022-10-05T16:22:00.405Z,21.82
2022-10-05T16:23:00.374Z,21.88